Time;durP1;ratioP1;P1;durP2;ratioP2;P2;SDS_P1;SDS_P2;PMS_P1;PMS_P2;Temp;Humidity;BMP_temperature;BMP_pressure;BME280_temperature;BME280_humidity;BME280_pressure;Samples;Min_cycle;Max_cycle;Signal;HPM_P1;HPM_P2
2022/10/03 00:01:23;;;;;;;0.40;0.30;;;11.90;99.90;;;;;;5036787;28;20639;-79
2022/10/03 00:04:00;;;;;;;0.50;0.50;;;11.90;99.90;;;;;;5035220;28;20178;-79
2022/10/03 00:06:39;;;;;;;0.93;0.73;;;11.80;99.90;;;;;;5036860;28;20197;-79
2022/10/03 00:09:29;;;;;;;0.53;0.50;;;11.80;99.90;;;;;;5033530;28;20205;-79
2022/10/03 00:12:33;;;;;;;0.30;0.30;;;11.80;99.90;;;;;;5035055;28;20259;-79
2022/10/03 00:15:12;;;;;;;0.73;0.47;;;11.80;99.90;;;;;;5035950;28;20190;-79
2022/10/03 00:17:50;;;;;;;1.30;0.20;;;11.70;99.90;;;;;;5037079;28;20194;-79
2022/10/03 00:20:46;;;;;;;1.00;0.27;;;11.70;99.90;;;;;;5036373;28;20173;-79
2022/10/03 00:23:24;;;;;;;0.40;0.40;;;11.70;99.90;;;;;;5034745;28;20264;-79
2022/10/03 00:26:25;;;;;;;0.40;0.40;;;11.80;99.90;;;;;;5034897;28;20194;-79
2022/10/03 00:29:00;;;;;;;0.50;0.50;;;11.80;99.90;;;;;;5036099;28;20324;-79
2022/10/03 00:32:22;;;;;;;1.13;0.97;;;11.80;99.90;;;;;;5036339;28;20178;-80
2022/10/03 00:35:19;;;;;;;0.40;0.40;;;11.80;99.90;;;;;;5006343;28;20663;-79
2022/10/03 00:37:56;;;;;;;0.57;0.50;;;11.80;99.90;;;;;;5034779;28;20228;-79
2022/10/03 00:40:54;;;;;;;4.10;0.30;;;11.80;99.90;;;;;;5036263;28;20206;-79
2022/10/03 00:43:45;;;;;;;0.63;0.63;;;11.80;99.90;;;;;;5036135;28;20249;-79
2022/10/03 00:46:36;;;;;;;0.43;0.33;;;11.80;99.90;;;;;;5034678;28;20212;-79
2022/10/03 00:49:07;;;;;;;0.47;0.47;;;11.70;99.90;;;;;;5034928;28;20174;-79
2022/10/03 00:52:00;;;;;;;0.57;0.40;;;11.70;99.90;;;;;;5035323;28;20190;-79
2022/10/03 00:54:35;;;;;;;0.20;0.20;;;11.70;99.90;;;;;;5034492;28;20207;-79
2022/10/03 00:57:37;;;;;;;0.57;0.50;;;11.60;99.90;;;;;;5034082;28;20194;-79
2022/10/03 01:00:12;;;;;;;0.67;0.67;;;11.60;99.90;;;;;;5034746;28;20179;-79
2022/10/03 01:02:52;;;;;;;0.30;0.30;;;11.50;99.90;;;;;;5035886;28;20176;-79
2022/10/03 01:05:37;;;;;;;0.30;0.30;;;11.50;99.90;;;;;;5035446;28;20206;-79
2022/10/03 01:08:25;;;;;;;1.07;0.97;;;11.50;99.90;;;;;;5034008;28;20244;-79
2022/10/03 01:11:30;;;;;;;0.33;0.33;;;11.40;99.90;;;;;;5034266;28;20167;-79
2022/10/03 01:14:14;;;;;;;0.20;0.20;;;11.40;99.90;;;;;;5034520;28;20187;-79
2022/10/03 01:17:17;;;;;;;0.63;0.40;;;11.40;99.90;;;;;;5034153;28;20219;-80
2022/10/03 01:19:51;;;;;;;0.10;0.10;;;11.30;99.90;;;;;;5035516;28;20321;-80
2022/10/03 01:22:36;;;;;;;0.30;0.30;;;11.30;99.90;;;;;;5035406;28;20192;-79
2022/10/03 01:25:01;;;;;;;1.30;1.07;;;11.20;99.90;;;;;;5034184;28;20168;-80
2022/10/03 01:30:21;;;;;;;0.80;0.80;;;11.10;99.90;;;;;;5035097;28;20200;-80
2022/10/03 01:30:22;;;;;;;0.20;0.20;;;11.10;99.90;;;;;;5034848;28;20660;-79
2022/10/03 01:33:13;;;;;;;1.03;0.83;;;11.00;99.90;;;;;;5033905;28;20193;-79
2022/10/03 01:35:47;;;;;;;0.33;0.27;;;11.00;99.90;;;;;;5033992;28;20170;-79
2022/10/03 01:38:28;;;;;;;0.33;0.33;;;11.00;99.90;;;;;;5033207;28;20197;-79
2022/10/03 01:41:32;;;;;;;0.47;0.40;;;11.00;99.90;;;;;;5034325;28;20693;-79
2022/10/03 01:44:18;;;;;;;0.77;0.60;;;11.00;99.90;;;;;;5035292;28;20196;-79
2022/10/03 01:46:53;;;;;;;0.47;0.47;;;10.90;99.90;;;;;;5033362;28;20220;-79
2022/10/03 01:49:29;;;;;;;0.83;0.30;;;10.80;99.90;;;;;;5033038;28;20172;-79
2022/10/03 01:52:14;;;;;;;0.43;0.43;;;10.70;99.90;;;;;;5035325;28;20655;-79
2022/10/03 01:55:04;;;;;;;0.23;0.23;;;10.70;99.90;;;;;;5033471;28;20181;-79
2022/10/03 01:58:08;;;;;;;0.53;0.30;;;10.70;99.90;;;;;;5033900;28;20198;-80
2022/10/03 02:01:06;;;;;;;0.20;0.20;;;10.60;99.90;;;;;;5033837;28;20179;-79
2022/10/03 02:03:56;;;;;;;0.13;0.13;;;10.50;99.90;;;;;;5033500;28;20169;-79
2022/10/03 02:06:44;;;;;;;0.43;0.43;;;10.60;99.90;;;;;;5033453;28;20197;-79
2022/10/03 02:09:33;;;;;;;0.20;0.20;;;10.70;99.90;;;;;;5034751;28;20162;-79
2022/10/03 02:12:24;;;;;;;2.13;1.00;;;10.80;99.90;;;;;;5033476;28;20252;-79
2022/10/03 02:15:18;;;;;;;1.63;0.60;;;10.90;99.90;;;;;;5033640;28;20174;-79
2022/10/03 02:18:12;;;;;;;0.60;0.60;;;10.90;99.90;;;;;;5032970;28;20198;-79
2022/10/03 02:20:53;;;;;;;0.93;0.60;;;10.90;99.90;;;;;;5034112;28;20191;-79
2022/10/03 02:23:43;;;;;;;0.20;0.20;;;11.00;99.90;;;;;;5033551;28;20174;-79
2022/10/03 02:26:32;;;;;;;1.10;0.83;;;11.00;99.90;;;;;;5032308;28;20225;-79
2022/10/03 02:29:22;;;;;;;1.20;0.73;;;11.10;99.90;;;;;;5032186;28;20547;-80
2022/10/03 02:32:09;;;;;;;0.50;0.40;;;11.10;99.90;;;;;;5031776;28;20176;-80
2022/10/03 02:34:47;;;;;;;0.30;0.30;;;11.00;99.90;;;;;;5032457;28;20161;-79
2022/10/03 02:37:48;;;;;;;0.47;0.47;;;10.90;99.90;;;;;;5032224;28;20205;-79
2022/10/03 02:40:52;;;;;;;0.60;0.50;;;10.80;99.90;;;;;;5033183;28;20256;-80
2022/10/03 02:43:22;;;;;;;1.47;0.63;;;10.80;99.90;;;;;;5033196;28;20221;-80
2022/10/03 02:45:59;;;;;;;0.50;0.50;;;10.80;99.90;;;;;;5034352;28;20618;-79
2022/10/03 02:49:02;;;;;;;0.53;0.53;;;10.90;99.90;;;;;;5032539;28;20197;-79
2022/10/03 02:51:36;;;;;;;0.40;0.40;;;11.00;99.90;;;;;;5033206;28;20659;-79
2022/10/03 02:54:34;;;;;;;0.63;0.50;;;11.20;99.90;;;;;;5032707;28;20216;-79
2022/10/03 02:57:21;;;;;;;0.30;0.30;;;11.20;99.90;;;;;;5032682;28;20875;-79
2022/10/03 03:00:28;;;;;;;0.70;0.60;;;11.30;99.90;;;;;;5033939;28;20179;-79
2022/10/03 03:03:30;;;;;;;0.67;0.67;;;11.30;99.90;;;;;;5033117;28;20173;-79
2022/10/03 03:05:56;;;;;;;0.17;0.17;;;11.30;99.90;;;;;;5032544;28;20278;-79
2022/10/03 03:08:42;;;;;;;0.70;0.67;;;11.20;99.90;;;;;;5032521;28;20286;-79
2022/10/03 03:11:25;;;;;;;0.93;0.60;;;11.30;99.90;;;;;;5032498;28;20166;-79
2022/10/03 03:14:17;;;;;;;0.80;0.73;;;11.40;99.90;;;;;;5034093;28;20166;-79
2022/10/03 03:16:56;;;;;;;0.40;0.40;;;11.40;99.90;;;;;;5032625;28;20206;-79
2022/10/03 03:19:49;;;;;;;1.67;0.90;;;11.50;99.90;;;;;;5033664;28;20209;-79
2022/10/03 03:22:49;;;;;;;1.43;0.50;;;11.50;99.90;;;;;;5032915;28;20177;-79
2022/10/03 03:25:38;;;;;;;0.20;0.20;;;11.50;99.90;;;;;;5032298;28;20201;-80
2022/10/03 03:28:19;;;;;;;0.67;0.67;;;11.40;99.90;;;;;;5046768;28;20183;-79
2022/10/03 03:30:53;;;;;;;0.67;0.67;;;11.00;99.90;;;;;;5049444;28;20204;-79
2022/10/03 03:33:35;;;;;;;0.47;0.33;;;10.90;99.90;;;;;;5049589;28;20192;-80
2022/10/03 03:36:31;;;;;;;0.40;0.40;;;10.90;99.90;;;;;;5049966;28;20224;-80
2022/10/03 03:39:11;;;;;;;1.37;0.33;;;10.70;99.90;;;;;;5047202;28;20209;-79
2022/10/03 03:41:49;;;;;;;0.17;0.17;;;10.70;99.90;;;;;;5034842;28;20266;-79
2022/10/03 03:44:36;;;;;;;0.20;0.20;;;10.90;99.90;;;;;;5036034;28;20555;-79
2022/10/03 03:47:27;;;;;;;0.50;0.47;;;10.90;99.90;;;;;;5037035;28;20694;-79
2022/10/03 03:50:20;;;;;;;0.50;0.33;;;10.60;99.90;;;;;;5037100;28;20515;-79
2022/10/03 03:53:00;;;;;;;0.40;0.40;;;10.70;99.90;;;;;;5036046;28;20185;-79
2022/10/03 03:55:55;;;;;;;1.53;0.40;;;10.70;99.90;;;;;;5037677;28;20200;-79
2022/10/03 03:58:43;;;;;;;0.50;0.50;;;10.80;99.90;;;;;;5035632;28;20276;-79
2022/10/03 04:01:36;;;;;;;0.30;0.30;;;10.90;99.90;;;;;;5036080;28;20635;-79
2022/10/03 04:04:31;;;;;;;0.30;0.30;;;10.90;99.90;;;;;;5035083;28;20546;-79
2022/10/03 04:07:27;;;;;;;0.10;0.10;;;10.90;99.90;;;;;;5035928;28;20222;-80
2022/10/03 04:10:11;;;;;;;0.10;0.10;;;11.00;99.90;;;;;;5035732;28;20177;-79
2022/10/03 04:12:39;;;;;;;1.53;0.80;;;10.90;99.90;;;;;;5035387;28;20823;-80
2022/10/03 04:15:14;;;;;;;0.60;0.23;;;10.90;99.90;;;;;;5035248;28;20179;-79
2022/10/03 04:21:19;;;;;;;0.83;0.40;;;11.10;99.90;;;;;;5037370;28;20170;-79
2022/10/03 04:24:03;;;;;;;0.27;0.20;;;11.20;99.90;;;;;;5035500;28;20655;-79
2022/10/03 04:27:07;;;;;;;1.00;0.80;;;11.30;99.90;;;;;;5014704;28;20569;-79
2022/10/03 04:29:41;;;;;;;0.40;0.40;;;11.40;99.90;;;;;;4995045;28;20182;-79
2022/10/03 04:32:25;;;;;;;1.27;0.50;;;11.40;99.90;;;;;;5015195;28;20189;-79
2022/10/03 04:35:28;;;;;;;0.53;0.53;;;11.30;99.90;;;;;;5015411;28;20545;-79
2022/10/03 04:38:14;;;;;;;0.33;0.33;;;11.30;99.90;;;;;;5014697;28;20218;-79
2022/10/03 04:40:52;;;;;;;1.07;0.97;;;11.30;99.90;;;;;;5014917;28;20231;-79
2022/10/03 04:43:33;;;;;;;1.07;1.03;;;11.30;99.90;;;;;;5015102;28;20178;-79
2022/10/03 04:46:24;;;;;;;0.30;0.30;;;11.30;99.90;;;;;;5015308;28;20635;-79
2022/10/03 04:49:04;;;;;;;0.50;0.50;;;11.30;99.90;;;;;;5014859;28;20235;-79
2022/10/03 04:51:47;;;;;;;1.30;0.50;;;11.20;99.90;;;;;;5014632;28;20191;-79
2022/10/03 04:54:22;;;;;;;2.50;0.90;;;11.20;99.90;;;;;;5014813;28;20709;-79
2022/10/03 04:56:59;;;;;;;0.80;0.80;;;11.20;99.90;;;;;;5014954;28;20259;-80
2022/10/03 04:59:27;;;;;;;0.33;0.33;;;11.20;99.90;;;;;;5014255;28;20173;-79
2022/10/03 05:02:02;;;;;;;2.53;1.37;;;11.10;99.90;;;;;;5014190;28;20181;-79
2022/10/03 05:04:53;;;;;;;0.70;0.40;;;11.20;99.90;;;;;;5014270;28;20632;-79
2022/10/03 05:07:32;;;;;;;0.60;0.60;;;11.10;99.90;;;;;;5015692;28;20206;-79
2022/10/03 05:10:15;;;;;;;0.73;0.70;;;11.00;99.90;;;;;;5014291;28;20282;-79
2022/10/03 05:12:51;;;;;;;1.07;0.50;;;11.00;99.90;;;;;;5014507;28;20522;-79
2022/10/03 05:15:24;;;;;;;0.77;0.50;;;11.10;99.90;;;;;;5014476;28;20214;-79
2022/10/03 05:18:12;;;;;;;4.13;0.50;;;11.10;99.90;;;;;;5013817;28;20192;-79
2022/10/03 05:20:43;;;;;;;1.13;0.93;;;11.20;99.90;;;;;;5014331;28;20253;-79
2022/10/03 05:23:43;;;;;;;0.33;0.33;;;11.20;99.90;;;;;;5014781;28;20192;-79
2022/10/03 05:26:28;;;;;;;1.10;1.00;;;11.20;99.90;;;;;;5014104;28;20205;-79
2022/10/03 05:29:24;;;;;;;0.20;0.20;;;11.20;99.90;;;;;;5014238;28;20172;-79
2022/10/03 05:32:17;;;;;;;0.30;0.30;;;11.30;99.90;;;;;;5011332;28;20187;-79
2022/10/03 05:35:03;;;;;;;0.57;0.57;;;11.30;99.90;;;;;;5015202;28;20194;-79
2022/10/03 05:37:59;;;;;;;0.37;0.37;;;11.40;99.90;;;;;;5013913;28;20202;-80
2022/10/03 05:40:33;;;;;;;0.27;0.27;;;11.40;99.90;;;;;;5014134;28;20171;-79
2022/10/03 05:43:10;;;;;;;0.80;0.57;;;11.40;99.90;;;;;;5013809;28;20207;-79
2022/10/03 05:46:00;;;;;;;0.20;0.20;;;11.40;99.90;;;;;;5014023;28;20292;-79
2022/10/03 05:48:57;;;;;;;0.40;0.40;;;11.50;99.90;;;;;;5015273;28;20286;-79
2022/10/03 05:51:41;;;;;;;0.87;0.70;;;11.60;99.90;;;;;;5014997;28;20194;-79
2022/10/03 05:54:06;;;;;;;0.87;0.80;;;11.60;99.90;;;;;;5013916;28;20174;-79
2022/10/03 05:57:10;;;;;;;3.60;0.50;;;11.60;99.90;;;;;;5014958;28;20267;-79
2022/10/03 05:59:58;;;;;;;0.67;0.67;;;11.60;99.90;;;;;;5014302;28;20174;-79
2022/10/03 06:02:26;;;;;;;0.63;0.47;;;11.60;99.90;;;;;;5013852;28;20175;-79
2022/10/03 06:05:17;;;;;;;1.37;0.60;;;11.50;99.90;;;;;;5013314;28;20526;-79
2022/10/03 06:08:13;;;;;;;0.37;0.30;;;11.50;99.90;;;;;;5012434;28;20260;-79
2022/10/03 06:10:39;;;;;;;0.83;0.80;;;11.50;99.90;;;;;;5014349;28;20160;-79
2022/10/03 06:13:19;;;;;;;0.77;0.77;;;11.50;99.90;;;;;;5013177;28;20216;-79
2022/10/03 06:16:15;;;;;;;0.57;0.57;;;11.50;99.90;;;;;;5013716;28;20167;-79
2022/10/03 06:18:59;;;;;;;0.50;0.40;;;11.50;99.90;;;;;;5013166;28;20290;-79
2022/10/03 06:21:43;;;;;;;0.63;0.63;;;11.50;99.90;;;;;;5013173;28;20613;-79
2022/10/03 06:24:50;;;;;;;0.50;0.50;;;11.40;99.90;;;;;;5013056;28;20186;-79
2022/10/03 06:27:52;;;;;;;0.50;0.50;;;11.40;99.90;;;;;;4975785;28;20211;-79
2022/10/03 06:30:18;;;;;;;1.10;1.00;;;11.30;99.90;;;;;;4992536;28;20641;-79
2022/10/03 06:33:27;;;;;;;0.40;0.30;;;11.30;99.90;;;;;;5017924;28;20337;-80
2022/10/03 06:36:04;;;;;;;0.50;0.50;;;11.20;99.90;;;;;;5013169;28;20683;-79
2022/10/03 06:39:04;;;;;;;0.67;0.67;;;11.30;99.90;;;;;;5012519;28;20245;-79
2022/10/03 06:41:48;;;;;;;0.47;0.47;;;11.20;99.90;;;;;;5013087;28;20174;-79
2022/10/03 06:44:45;;;;;;;0.30;0.30;;;11.30;99.90;;;;;;5012823;28;20261;-79
2022/10/03 06:47:50;;;;;;;0.40;0.40;;;11.20;99.90;;;;;;5013666;28;20214;-79
2022/10/03 06:50:40;;;;;;;0.47;0.43;;;11.30;99.90;;;;;;5012861;28;20199;-79
2022/10/03 06:53:22;;;;;;;0.30;0.30;;;11.30;99.90;;;;;;5014113;28;20237;-79
2022/10/03 06:56:03;;;;;;;1.70;0.50;;;11.40;99.90;;;;;;5013247;28;20208;-79
2022/10/03 06:59:04;;;;;;;0.50;0.50;;;11.40;99.90;;;;;;5012698;28;20195;-79
2022/10/03 07:01:43;;;;;;;0.20;0.20;;;11.40;99.90;;;;;;5013096;28;20177;-79
2022/10/03 07:04:37;;;;;;;0.60;0.60;;;11.40;99.90;;;;;;5012694;28;20186;-79
2022/10/03 07:07:25;;;;;;;0.97;0.73;;;11.40;99.90;;;;;;5011153;28;20318;-79
2022/10/03 07:10:08;;;;;;;0.40;0.40;;;11.40;99.90;;;;;;5025151;28;20182;-80
2022/10/03 07:12:42;;;;;;;1.20;0.70;;;11.50;99.90;;;;;;5032405;28;20827;-79
2022/10/03 07:15:41;;;;;;;1.30;1.20;;;11.60;99.90;;;;;;5032257;28;20184;-79
2022/10/03 07:18:38;;;;;;;0.27;0.27;;;11.70;99.90;;;;;;5032078;28;20702;-80
2022/10/03 07:21:35;;;;;;;0.40;0.27;;;11.70;99.90;;;;;;5037802;28;20173;-79
2022/10/03 07:24:13;;;;;;;0.30;0.30;;;11.80;99.90;;;;;;5036141;28;20181;-79
2022/10/03 07:27:09;;;;;;;0.40;0.40;;;12.00;99.90;;;;;;5036188;28;20621;-79
2022/10/03 07:29:50;;;;;;;0.23;0.23;;;12.00;99.90;;;;;;5036087;28;20174;-79
2022/10/03 07:32:41;;;;;;;0.90;0.50;;;12.20;99.90;;;;;;5037284;28;20154;-79
2022/10/03 07:38:58;;;;;;;0.30;0.30;;;12.40;99.90;;;;;;5036942;28;20193;-79
2022/10/03 07:41:51;;;;;;;0.77;0.47;;;12.50;99.90;;;;;;5035936;28;20181;-79
2022/10/03 07:44:23;;;;;;;2.07;1.10;;;12.60;99.90;;;;;;5035712;28;20177;-79
2022/10/03 07:47:15;;;;;;;0.13;0.13;;;12.60;99.90;;;;;;5035364;28;20207;-79
2022/10/03 07:50:18;;;;;;;0.23;0.23;;;12.70;99.90;;;;;;5035827;28;20635;-79
2022/10/03 07:53:18;;;;;;;0.70;0.70;;;12.70;99.90;;;;;;5036924;28;20185;-79
2022/10/03 07:56:15;;;;;;;0.40;0.40;;;12.80;99.90;;;;;;5035046;28;20204;-79
2022/10/03 07:58:43;;;;;;;1.20;0.50;;;12.80;99.90;;;;;;5035131;28;20853;-79
2022/10/03 08:01:35;;;;;;;0.93;0.40;;;12.90;99.90;;;;;;5035210;28;20186;-79
2022/10/03 08:04:38;;;;;;;0.20;0.20;;;13.00;99.90;;;;;;5015833;28;20667;-79
2022/10/03 08:07:18;;;;;;;0.67;0.40;;;13.20;99.90;;;;;;5015281;28;20221;-80
2022/10/03 08:10:02;;;;;;;0.10;0.10;;;13.30;99.90;;;;;;5015950;28;20175;-79
2022/10/03 08:13:01;;;;;;;0.53;0.20;;;13.20;99.90;;;;;;5015040;28;20171;-79
2022/10/03 08:15:55;;;;;;;0.57;0.43;;;13.30;99.90;;;;;;5002103;28;20191;-79
2022/10/03 08:18:31;;;;;;;0.60;0.60;;;13.40;99.90;;;;;;5015279;28;20889;-79
2022/10/03 08:21:02;;;;;;;0.27;0.23;;;13.60;99.90;;;;;;5015279;28;20175;-80
2022/10/03 08:23:56;;;;;;;0.30;0.30;;;13.70;99.90;;;;;;5015268;28;20668;-79
2022/10/03 08:26:54;;;;;;;0.37;0.37;;;13.80;99.90;;;;;;5015375;28;20195;-79
2022/10/03 08:29:32;;;;;;;0.53;0.47;;;14.00;99.90;;;;;;5015685;28;20188;-79
2022/10/03 08:32:20;;;;;;;0.63;0.40;;;14.00;99.90;;;;;;5014714;28;20310;-79
2022/10/03 08:35:04;;;;;;;0.97;0.67;;;14.20;99.90;;;;;;5015083;28;20170;-79
2022/10/03 08:37:48;;;;;;;0.57;0.57;;;14.30;99.90;;;;;;5014903;28;20209;-79
2022/10/03 08:40:29;;;;;;;1.17;1.07;;;14.10;99.90;;;;;;5026372;28;20173;-79
2022/10/03 08:43:30;;;;;;;0.40;0.40;;;14.20;99.90;;;;;;5035194;28;20274;-79
2022/10/03 08:46:10;;;;;;;1.30;0.80;;;14.20;99.90;;;;;;5034746;28;20198;-79
2022/10/03 08:49:02;;;;;;;0.30;0.30;;;14.20;99.90;;;;;;5034551;28;20294;-80
2022/10/03 08:51:55;;;;;;;0.60;0.47;;;14.10;99.90;;;;;;5036016;28;20190;-79
2022/10/03 08:54:58;;;;;;;0.60;0.60;;;14.10;99.90;;;;;;5034588;28;20654;-80
2022/10/03 08:57:48;;;;;;;0.83;0.83;;;14.10;99.90;;;;;;5035660;28;20262;-79
2022/10/03 09:00:22;;;;;;;1.40;0.83;;;14.00;99.90;;;;;;5034575;28;20216;-80
2022/10/03 09:03:34;;;;;;;0.87;0.50;;;14.10;99.90;;;;;;5034619;28;20270;-79
2022/10/03 09:06:19;;;;;;;1.77;0.80;;;14.00;99.90;;;;;;5034245;28;20332;-79
2022/10/03 09:09:14;;;;;;;0.60;0.60;;;14.00;99.90;;;;;;5034155;28;20188;-79
2022/10/03 09:12:07;;;;;;;0.40;0.40;;;14.10;99.90;;;;;;5033746;28;20173;-79
2022/10/03 09:14:40;;;;;;;0.60;0.40;;;14.20;99.90;;;;;;5034068;28;20175;-79
2022/10/03 09:17:34;;;;;;;0.30;0.30;;;14.50;99.90;;;;;;5033903;28;20212;-80
2022/10/03 09:20:03;;;;;;;0.47;0.47;;;14.60;99.90;;;;;;5035393;28;20183;-79
2022/10/03 09:22:48;;;;;;;1.80;0.47;;;14.70;99.90;;;;;;5035145;28;20178;-79
2022/10/03 09:26:06;;;;;;;0.97;0.70;;;15.00;99.90;;;;;;5034249;28;20178;-79
2022/10/03 09:28:43;;;;;;;0.87;0.63;;;15.30;99.90;;;;;;5044041;28;20803;-80
2022/10/03 09:31:55;;;;;;;0.50;0.50;;;15.40;99.90;;;;;;5035209;28;20305;-79
2022/10/03 09:34:42;;;;;;;0.53;0.53;;;15.60;99.90;;;;;;5052599;28;20297;-79
2022/10/03 09:37:38;;;;;;;0.87;0.20;;;15.70;99.90;;;;;;5033858;28;20250;-79
2022/10/03 09:40:24;;;;;;;0.70;0.70;;;15.80;99.90;;;;;;5034676;28;20180;-79
2022/10/03 09:43:14;;;;;;;0.77;0.77;;;15.80;99.90;;;;;;5033678;28;20270;-79
2022/10/03 09:46:04;;;;;;;1.60;0.60;;;15.80;99.90;;;;;;5033090;28;20206;-79
2022/10/03 09:48:45;;;;;;;1.57;1.33;;;15.90;99.90;;;;;;5033379;28;20203;-79
2022/10/03 09:51:26;;;;;;;0.67;0.43;;;15.90;99.90;;;;;;5033509;28;20271;-79
2022/10/03 09:53:52;;;;;;;0.60;0.60;;;15.90;99.90;;;;;;5033721;28;20180;-79
2022/10/03 09:56:29;;;;;;;1.07;0.80;;;16.00;99.90;;;;;;5034779;28;20177;-79
2022/10/03 09:59:14;;;;;;;0.40;0.40;;;16.10;99.90;;;;;;5033952;28;20178;-79
2022/10/03 10:02:17;;;;;;;1.60;0.60;;;16.20;99.90;;;;;;5034326;28;20641;-79
2022/10/03 10:04:53;;;;;;;0.40;0.40;;;16.00;99.90;;;;;;5032812;28;20179;-80
2022/10/03 10:07:44;;;;;;;3.73;0.73;;;15.90;99.90;;;;;;5033541;28;20244;-79
2022/10/03 10:10:40;;;;;;;0.70;0.70;;;16.00;99.90;;;;;;5043645;28;20196;-80
2022/10/03 10:13:49;;;;;;;0.40;0.40;;;16.20;99.90;;;;;;5047516;28;20203;-80
2022/10/03 10:16:30;;;;;;;0.13;0.13;;;16.40;99.90;;;;;;5046881;28;20689;-79
2022/10/03 10:19:04;;;;;;;0.70;0.50;;;16.60;99.90;;;;;;5044652;28;20250;-79
2022/10/03 10:22:01;;;;;;;0.50;0.50;;;16.70;99.90;;;;;;5045270;28;20642;-80
2022/10/03 10:24:26;;;;;;;1.23;1.23;;;16.80;99.90;;;;;;5024766;28;20189;-79
2022/10/03 10:27:00;;;;;;;0.43;0.40;;;17.00;99.90;;;;;;5036324;28;20233;-79
2022/10/03 10:30:01;;;;;;;3.20;0.70;;;17.10;99.90;;;;;;5034537;28;20202;-79
2022/10/03 10:33:12;;;;;;;0.33;0.33;;;17.10;99.90;;;;;;5034534;28;20180;-80
2022/10/03 10:36:05;;;;;;;0.40;0.40;;;17.10;99.90;;;;;;5034770;28;20255;-79
2022/10/03 10:38:52;;;;;;;1.93;0.50;;;17.00;99.90;;;;;;5034397;28;20200;-79
2022/10/03 10:41:36;;;;;;;1.60;1.30;;;16.90;99.90;;;;;;5033905;28;20621;-79
2022/10/03 10:44:20;;;;;;;1.20;1.17;;;16.80;99.90;;;;;;5033310;28;20185;-79
2022/10/03 10:46:57;;;;;;;0.73;0.73;;;16.70;99.90;;;;;;5033231;28;20576;-79
2022/10/03 10:50:07;;;;;;;6.70;0.90;;;16.60;99.90;;;;;;5034493;28;20216;-80
2022/10/03 10:52:47;;;;;;;2.00;0.60;;;16.50;99.90;;;;;;5034954;28;20188;-80
2022/10/03 10:55:31;;;;;;;1.17;0.53;;;16.40;99.90;;;;;;5037440;28;20216;-79
2022/10/03 10:57:59;;;;;;;5.07;0.80;;;16.50;99.90;;;;;;5037599;28;20198;-79
2022/10/03 11:00:58;;;;;;;0.40;0.40;;;16.10;99.90;;;;;;5038375;28;20263;-79
2022/10/03 11:03:38;;;;;;;0.30;0.30;;;16.10;99.90;;;;;;5038452;28;20527;-79
2022/10/03 11:06:28;;;;;;;0.83;0.60;;;16.30;99.90;;;;;;5037113;28;20194;-79
2022/10/03 11:09:27;;;;;;;0.30;0.30;;;16.40;99.90;;;;;;5036606;28;20171;-79
2022/10/03 11:12:15;;;;;;;0.77;0.63;;;16.30;99.90;;;;;;5036553;28;20176;-80
2022/10/03 11:15:14;;;;;;;0.50;0.50;;;16.10;99.90;;;;;;5037812;28;20179;-79
2022/10/03 11:18:01;;;;;;;0.43;0.43;;;16.30;99.90;;;;;;5036419;28;20203;-79
2022/10/03 11:20:45;;;;;;;0.90;0.73;;;15.70;99.90;;;;;;5036722;28;20249;-80
2022/10/03 11:23:56;;;;;;;0.67;0.53;;;15.40;99.90;;;;;;5037952;28;20211;-80
2022/10/03 11:27:01;;;;;;;1.53;0.50;;;15.20;99.90;;;;;;5037576;28;20192;-79
2022/10/03 11:30:02;;;;;;;0.40;0.40;;;15.10;99.90;;;;;;5036464;28;20230;-79
2022/10/03 11:33:05;;;;;;;0.20;0.20;;;15.10;99.90;;;;;;5036686;28;20216;-79
2022/10/03 11:35:46;;;;;;;0.60;0.60;;;15.10;99.90;;;;;;5036853;28;20738;-79
2022/10/03 11:38:35;;;;;;;9.87;2.80;;;15.00;99.90;;;;;;5035759;28;20198;-79
2022/10/03 11:41:00;;;;;;;6.73;2.20;;;14.90;99.90;;;;;;5036040;28;20213;-79
2022/10/03 11:43:51;;;;;;;2.33;2.13;;;15.30;99.90;;;;;;5037202;28;20203;-79
2022/10/03 11:46:34;;;;;;;8.30;4.50;;;15.40;99.90;;;;;;5035613;28;20290;-79
2022/10/03 11:49:06;;;;;;;1.70;1.40;;;15.80;99.90;;;;;;5035968;28;20257;-80
2022/10/03 11:52:03;;;;;;;0.77;0.60;;;16.00;99.90;;;;;;5037233;28;20190;-79
2022/10/03 11:54:33;;;;;;;1.77;0.77;;;16.10;99.90;;;;;;5036744;28;20166;-79
2022/10/03 11:57:25;;;;;;;0.57;0.57;;;16.10;99.90;;;;;;5035356;28;20192;-80
2022/10/03 12:00:16;;;;;;;0.30;0.30;;;16.30;99.90;;;;;;5036443;28;20162;-79
2022/10/03 12:02:50;;;;;;;0.40;0.40;;;16.40;99.90;;;;;;5034970;28;20177;-80
2022/10/03 12:05:45;;;;;;;0.40;0.40;;;16.50;99.90;;;;;;5035426;28;20186;-80
2022/10/03 12:11:23;;;;;;;0.50;0.43;;;17.40;99.90;;;;;;5037174;28;20170;-79
2022/10/03 12:14:08;;;;;;;0.70;0.70;;;17.90;99.90;;;;;;5035860;28;20174;-79
2022/10/03 12:16:59;;;;;;;0.30;0.30;;;18.30;99.90;;;;;;5037081;28;20183;-79
2022/10/03 12:19:52;;;;;;;0.60;0.37;;;18.70;99.90;;;;;;5036810;28;20151;-79
2022/10/03 12:22:48;;;;;;;0.50;0.50;;;18.60;99.90;;;;;;5034958;28;20174;-79
2022/10/03 12:25:29;;;;;;;0.70;0.70;;;18.90;99.90;;;;;;5035703;28;20201;-80
2022/10/03 12:28:20;;;;;;;0.87;0.87;;;19.00;99.90;;;;;;5036140;28;20206;-80
2022/10/03 12:30:55;;;;;;;1.70;0.70;;;19.20;99.90;;;;;;5035383;28;20166;-79
2022/10/03 12:34:06;;;;;;;0.37;0.30;;;18.90;99.90;;;;;;5035133;28;20686;-79
2022/10/03 12:37:04;;;;;;;0.20;0.20;;;18.10;99.90;;;;;;5043684;28;20219;-79
2022/10/03 12:39:43;;;;;;;0.27;0.27;;;17.80;99.90;;;;;;5035122;28;20651;-80
2022/10/03 12:42:13;;;;;;;0.70;0.40;;;17.70;99.90;;;;;;5035008;28;20241;-79
2022/10/03 12:44:58;;;;;;;0.37;0.37;;;17.60;99.90;;;;;;5036067;28;20174;-79
2022/10/03 12:47:57;;;;;;;0.20;0.20;;;17.50;99.90;;;;;;5033739;28;20581;-79
2022/10/03 12:50:34;;;;;;;0.60;0.20;;;17.30;99.90;;;;;;5034263;28;20545;-79
2022/10/03 12:53:00;;;;;;;0.43;0.43;;;17.00;99.90;;;;;;5034750;28;20232;-80
2022/10/03 12:55:30;;;;;;;0.23;0.23;;;16.80;99.90;;;;;;5035170;28;20179;-80
2022/10/03 12:58:00;;;;;;;1.40;0.50;;;17.10;99.90;;;;;;5035462;28;20194;-80
2022/10/03 13:00:43;;;;;;;0.20;0.20;;;17.30;99.90;;;;;;5035628;28;20204;-79
2022/10/03 13:03:56;;;;;;;0.37;0.37;;;17.40;99.90;;;;;;5035606;28;20214;-80
2022/10/03 13:07:02;;;;;;;0.30;0.30;;;17.60;99.90;;;;;;5037331;28;20217;-80
2022/10/03 13:09:55;;;;;;;0.40;0.40;;;17.70;99.90;;;;;;5033395;28;20276;-79
2022/10/03 13:12:42;;;;;;;0.30;0.30;;;17.90;99.90;;;;;;5033822;28;20587;-80
2022/10/03 13:15:43;;;;;;;1.27;0.40;;;18.10;99.90;;;;;;5033792;28;20182;-79
2022/10/03 13:18:11;;;;;;;0.70;0.40;;;18.20;99.90;;;;;;5033232;28;20759;-80
2022/10/03 13:20:42;;;;;;;0.70;0.70;;;18.40;99.90;;;;;;5033931;28;20185;-79
2022/10/03 13:23:20;;;;;;;0.63;0.63;;;18.40;99.90;;;;;;5034816;28;20169;-79
2022/10/03 13:26:01;;;;;;;0.40;0.40;;;18.40;99.90;;;;;;5033322;28;20210;-80
2022/10/03 13:28:44;;;;;;;0.63;0.63;;;18.40;99.90;;;;;;5032996;28;20751;-79
2022/10/03 13:31:17;;;;;;;2.87;0.67;;;18.40;99.90;;;;;;5034403;28;20182;-80
2022/10/03 13:33:52;;;;;;;0.63;0.20;;;18.60;99.90;;;;;;5034558;28;20268;-80
2022/10/03 13:36:27;;;;;;;0.60;0.60;;;18.70;99.90;;;;;;5034045;28;20256;-79
2022/10/03 13:39:11;;;;;;;0.40;0.40;;;18.30;99.90;;;;;;5034880;28;20197;-79
2022/10/03 13:42:09;;;;;;;0.20;0.20;;;18.30;99.90;;;;;;5033655;28;20193;-80
2022/10/03 13:44:55;;;;;;;0.27;0.27;;;18.20;99.90;;;;;;5033717;28;20193;-79
2022/10/03 13:47:43;;;;;;;0.20;0.20;;;18.20;99.90;;;;;;5032889;28;20212;-79
2022/10/03 13:50:17;;;;;;;1.07;0.40;;;18.30;99.90;;;;;;5033494;28;20185;-79
2022/10/03 13:52:46;;;;;;;0.40;0.40;;;18.40;99.90;;;;;;5033240;28;20170;-80
2022/10/03 13:55:34;;;;;;;1.33;0.47;;;18.60;99.90;;;;;;5033090;28;20186;-79
2022/10/03 13:58:18;;;;;;;0.43;0.43;;;18.50;99.90;;;;;;5033920;28;20753;-79
2022/10/03 14:01:12;;;;;;;3.10;0.97;;;18.50;99.90;;;;;;5033074;28;20169;-80
2022/10/03 14:04:00;;;;;;;0.73;0.60;;;18.50;99.90;;;;;;5033377;28;20182;-79
2022/10/03 14:07:01;;;;;;;0.50;0.50;;;18.30;99.90;;;;;;5033028;28;20664;-79
2022/10/03 14:09:35;;;;;;;0.37;0.37;;;18.00;99.90;;;;;;5034184;28;20217;-80
2022/10/03 14:12:16;;;;;;;0.90;0.90;;;17.90;99.90;;;;;;5034262;28;20166;-79
2022/10/03 14:15:16;;;;;;;0.60;0.60;;;17.30;99.90;;;;;;5032518;28;20166;-80
2022/10/03 14:17:58;;;;;;;0.43;0.43;;;16.90;99.90;;;;;;5032712;28;20293;-80
2022/10/03 14:20:52;;;;;;;0.20;0.20;;;17.30;99.90;;;;;;5032680;28;20177;-80
2022/10/03 14:23:40;;;;;;;0.50;0.50;;;17.30;99.90;;;;;;5025157;28;20201;-80
2022/10/03 14:26:23;;;;;;;0.40;0.40;;;17.50;99.90;;;;;;5033111;28;20198;-79
2022/10/03 14:29:05;;;;;;;0.63;0.47;;;17.60;99.90;;;;;;5033769;28;20190;-79
2022/10/03 14:31:34;;;;;;;0.83;0.50;;;17.90;99.90;;;;;;5032727;28;20167;-79
2022/10/03 14:34:18;;;;;;;0.20;0.20;;;17.90;99.90;;;;;;5033607;28;20182;-80
2022/10/03 14:37:12;;;;;;;0.30;0.30;;;18.00;99.90;;;;;;5033336;28;20240;-79
2022/10/03 14:40:04;;;;;;;0.40;0.40;;;17.90;99.90;;;;;;5033359;28;20251;-80